createdAt,value
2022-10-01T00:07:54.834Z,35
2022-10-01T00:17:58.378Z,22
2022-10-01T00:28:02.458Z,17
2022-10-01T00:38:05.936Z,34
2022-10-01T00:48:09.119Z,17
2022-10-01T00:58:13.131Z,29
2022-10-01T01:08:16.729Z,28
2022-10-01T01:18:20.739Z,11
2022-10-01T01:28:24.252Z,6
2022-10-01T01:38:27.668Z,5
2022-10-01T01:48:30.770Z,11
2022-10-01T02:08:37.203Z,11
2022-10-01T02:18:40.614Z,9
2022-10-01T02:28:43.671Z,2
2022-10-01T02:48:51.147Z,12
2022-10-01T02:58:54.864Z,16
2022-10-01T03:19:01.572Z,16
2022-10-01T03:49:11.896Z,19
2022-10-01T03:59:15.880Z,13
2022-10-01T04:09:19.860Z,10
2022-10-01T04:19:23.671Z,4
2022-10-01T04:29:26.918Z,10
2022-10-01T04:39:30.436Z,7
2022-10-01T04:49:33.682Z,11
2022-10-01T04:59:36.832Z,16
2022-10-01T05:09:40.161Z,5
2022-10-01T05:19:43.850Z,10
2022-10-01T05:29:47.305Z,11
2022-10-01T05:39:50.628Z,7
2022-10-01T05:49:54.195Z,9
2022-10-01T05:59:57.655Z,5
2022-10-01T06:10:01.372Z,4
2022-10-01T06:30:07.659Z,9
2022-10-01T06:40:11.144Z,4
2022-10-01T06:50:14.230Z,2
2022-10-01T07:00:18.038Z,7
2022-10-01T07:10:22.034Z,7
2022-10-01T07:20:25.764Z,6
2022-10-01T07:40:32.270Z,5
2022-10-01T07:50:36.161Z,4
2022-10-01T08:00:39.614Z,6
2022-10-01T08:10:51.203Z,7
2022-10-01T08:20:54.649Z,12
2022-10-01T08:30:58.249Z,7
2022-10-01T08:41:01.936Z,6
2022-10-01T08:51:05.427Z,6
2022-10-01T09:01:08.580Z,5
2022-10-01T09:11:12.456Z,5
2022-10-01T09:21:16.481Z,5
2022-10-01T09:31:20.137Z,7
2022-10-01T09:41:23.857Z,4
2022-10-01T09:51:27.418Z,10
2022-10-01T10:01:30.577Z,5
2022-10-01T10:11:33.995Z,6
2022-10-01T10:21:37.706Z,5
2022-10-01T10:31:41.341Z,4
2022-10-01T10:41:44.869Z,3
2022-10-01T10:51:48.729Z,10
2022-10-01T11:01:52.736Z,11
2022-10-01T11:11:56.040Z,16
2022-10-01T11:21:59.232Z,25
2022-10-01T11:32:03.252Z,25
2022-10-01T11:42:07.179Z,22
2022-10-01T11:52:10.756Z,5
2022-10-01T12:02:14.399Z,14
2022-10-01T12:12:18.270Z,20
2022-10-01T12:32:25.130Z,3
2022-10-01T12:42:28.545Z,2
2022-10-01T12:52:31.706Z,1
2022-10-01T13:02:35.699Z,1
2022-10-01T13:12:39.593Z,10
2022-10-01T13:22:43.429Z,3
2022-10-01T13:32:46.936Z,7
2022-10-01T13:42:50.007Z,34
2022-10-01T13:52:53.753Z,39
2022-10-01T14:02:57.676Z,32
2022-10-01T14:13:00.820Z,44
2022-10-01T14:23:04.128Z,23
2022-10-01T14:43:10.887Z,11
2022-10-01T14:53:13.958Z,40
2022-10-01T15:03:17.695Z,21
2022-10-01T15:13:21.134Z,23
2022-10-01T15:23:25.178Z,24
2022-10-01T15:33:28.278Z,12
2022-10-01T15:43:31.646Z,39
2022-10-01T15:53:35.414Z,17
2022-10-01T16:13:42.633Z,6
2022-10-01T16:23:45.712Z,21
2022-10-01T16:33:49.113Z,30
2022-10-01T16:43:52.651Z,20
2022-10-01T16:53:55.768Z,7
2022-10-01T17:14:03.217Z,12
2022-10-01T17:34:10.202Z,4
2022-10-01T17:54:17.850Z,2
2022-10-01T18:04:20.997Z,6
2022-10-01T18:14:25.036Z,6
2022-10-01T18:24:28.363Z,7
2022-10-01T18:34:31.868Z,3
2022-10-01T18:44:35.847Z,2
2022-10-01T18:54:39.602Z,1
2022-10-01T19:04:42.882Z,5
2022-10-01T19:14:46.150Z,7
2022-10-01T19:24:50.182Z,6
2022-10-01T19:34:53.466Z,4
2022-10-01T19:44:57.260Z,4
2022-10-01T19:55:00.441Z,7
2022-10-01T20:05:03.740Z,5
2022-10-01T20:15:07.647Z,4
2022-10-01T20:25:11.184Z,1
2022-10-01T20:35:15.156Z,3
2022-10-01T20:45:18.877Z,4
2022-10-01T21:05:26.285Z,0
2022-10-01T21:15:29.816Z,1
2022-10-01T21:45:41.515Z,1
2022-10-01T22:25:55.579Z,1
2022-10-01T22:35:59.400Z,1
2022-10-01T22:46:02.954Z,3
2022-10-01T22:56:06.870Z,3
2022-10-01T23:06:10.253Z,5
2022-10-01T23:16:13.379Z,2
2022-10-01T23:26:16.544Z,6
2022-10-01T23:56:26.751Z,2
